createdAt,value
2018-11-14T07:36:46.628Z,28.90
2018-11-14T07:39:14.917Z,27.83
2018-11-14T07:41:43.163Z,28.70
2018-11-14T07:44:11.404Z,29.20
2018-11-14T07:46:39.636Z,30.23
2018-11-14T07:49:07.948Z,30.33
2018-11-14T07:51:36.113Z,29.03
2018-11-14T07:54:04.357Z,29.27
2018-11-14T07:56:35.788Z,29.70
2018-11-14T07:59:04.022Z,28.40
2018-11-14T08:01:32.244Z,28.30
2018-11-14T08:04:00.497Z,28.13
2018-11-14T08:06:28.728Z,29.00
2018-11-14T08:08:56.957Z,30.13
2018-11-14T08:11:25.213Z,28.17
2018-11-14T08:13:53.430Z,28.23
2018-11-14T08:16:21.675Z,29.30
2018-11-14T08:18:49.978Z,29.50
2018-11-14T08:21:18.153Z,29.97
2018-11-14T08:23:46.385Z,28.77
2018-11-14T08:26:14.627Z,29.83
2018-11-14T08:28:42.840Z,27.80
2018-11-14T08:31:11.089Z,27.93
2018-11-14T08:33:39.325Z,29.80
2018-11-14T08:36:07.610Z,26.53
2018-11-14T08:38:35.848Z,27.77
2018-11-14T08:41:04.131Z,26.00
2018-11-14T08:43:32.392Z,27.17
2018-11-14T08:46:00.646Z,24.40
2018-11-14T08:48:28.917Z,24.63
2018-11-14T08:50:57.160Z,26.67
2018-11-14T08:53:25.397Z,24.30
2018-11-14T08:55:53.637Z,25.13
2018-11-14T08:58:21.867Z,24.17
2018-11-14T09:00:50.116Z,24.07
2018-11-14T09:03:18.342Z,23.57
2018-11-14T09:05:46.591Z,24.33
2018-11-14T09:08:14.824Z,24.17
2018-11-14T09:10:43.064Z,23.70
2018-11-14T09:13:13.066Z,22.73
2018-11-14T09:15:41.442Z,22.47
2018-11-14T09:18:16.590Z,22.13
2018-11-14T09:20:44.772Z,19.97
2018-11-14T09:23:13.004Z,20.50
2018-11-14T09:25:41.248Z,21.67
2018-11-14T09:28:09.473Z,21.47
2018-11-14T09:30:37.720Z,21.07
2018-11-14T09:33:06.312Z,21.83
2018-11-14T09:35:34.560Z,22.00
2018-11-14T09:38:02.778Z,21.33
2018-11-14T09:40:31.244Z,20.23
2018-11-14T09:42:59.482Z,21.33
2018-11-14T09:45:28.889Z,21.43
2018-11-14T09:47:57.143Z,20.20
2018-11-14T09:50:27.524Z,20.23
2018-11-14T09:52:59.007Z,18.10
2018-11-14T09:55:27.213Z,18.30
2018-11-14T09:57:55.476Z,20.43
2018-11-14T10:00:26.756Z,18.93
2018-11-14T10:02:57.650Z,19.23
2018-11-14T10:05:26.089Z,19.03
2018-11-14T10:07:54.388Z,18.47
2018-11-14T10:10:23.091Z,17.67
2018-11-14T10:12:51.340Z,17.80
2018-11-14T10:15:20.679Z,15.87
2018-11-14T10:17:49.220Z,14.73
2018-11-14T10:20:18.684Z,16.73
2018-11-14T10:22:46.987Z,16.60
2018-11-14T10:25:15.772Z,16.70
2018-11-14T10:27:44.555Z,16.33
2018-11-14T10:30:14.999Z,14.87
2018-11-14T10:32:43.942Z,15.50
2018-11-14T10:35:12.345Z,15.93
2018-11-14T10:37:40.909Z,14.30
2018-11-14T10:40:11.912Z,14.90
2018-11-14T10:42:40.339Z,14.40
2018-11-14T10:45:09.758Z,14.40
2018-11-14T10:47:38.022Z,13.50
2018-11-14T10:50:08.220Z,15.27
2018-11-14T10:52:36.556Z,16.83
2018-11-14T10:55:05.372Z,13.77
2018-11-14T10:57:33.630Z,11.83
2018-11-14T11:00:01.879Z,12.13
2018-11-14T11:02:35.564Z,11.53
2018-11-14T11:05:09.036Z,12.10
2018-11-14T11:07:42.536Z,12.13
2018-11-14T11:10:16.195Z,11.10
2018-11-14T11:14:54.640Z,13.17
2018-11-14T11:17:32.099Z,11.60
2018-11-14T11:20:00.349Z,11.90
2018-11-14T11:22:28.596Z,10.57
2018-11-14T11:24:56.824Z,11.77
2018-11-14T11:27:25.065Z,11.10
2018-11-14T11:29:53.609Z,11.07
2018-11-14T11:32:21.860Z,10.63
2018-11-14T11:34:50.101Z,10.80
2018-11-14T11:37:18.368Z,10.13
2018-11-14T11:39:46.597Z,9.43
2018-11-14T11:42:14.833Z,9.53
2018-11-14T11:44:43.081Z,9.73
2018-11-14T11:47:11.325Z,9.27
2018-11-14T11:49:39.585Z,9.30
2018-11-14T11:52:07.831Z,8.33
2018-11-14T11:54:36.089Z,8.57
2018-11-14T11:57:04.332Z,10.23
2018-11-14T11:59:32.651Z,8.20
2018-11-14T12:02:00.832Z,8.23
2018-11-14T12:04:29.071Z,6.73
2018-11-14T12:06:57.288Z,7.90
2018-11-14T12:09:25.539Z,7.70
2018-11-14T12:11:53.763Z,7.30
2018-11-14T12:14:22.010Z,8.10
2018-11-14T12:16:50.260Z,8.00
2018-11-14T12:19:18.584Z,7.20
2018-11-14T12:21:46.781Z,8.80
2018-11-14T12:24:15.021Z,7.43
2018-11-14T12:26:43.260Z,7.27
2018-11-14T12:29:11.506Z,8.10
2018-11-14T12:31:39.721Z,7.97
2018-11-14T12:34:07.961Z,7.80
2018-11-14T12:36:36.253Z,7.60
2018-11-14T12:39:06.594Z,6.87
2018-11-14T12:41:34.851Z,6.13
2018-11-14T12:44:03.112Z,7.00
2018-11-14T12:46:31.341Z,7.10
2018-11-14T12:48:59.586Z,7.33
2018-11-14T12:51:27.806Z,7.20
2018-11-14T12:53:56.052Z,7.13
2018-11-14T12:56:24.300Z,6.80
2018-11-14T12:58:52.548Z,7.93
2018-11-14T13:01:20.804Z,7.53
2018-11-14T13:03:49.051Z,6.93
2018-11-14T13:06:17.275Z,6.90
2018-11-14T13:08:45.505Z,6.83
2018-11-14T13:11:13.766Z,7.77
2018-11-14T13:13:47.164Z,6.80
2018-11-14T13:16:16.180Z,6.67
2018-11-14T13:18:44.629Z,6.87
2018-11-14T13:21:13.092Z,7.80
2018-11-14T13:23:41.429Z,6.40
2018-11-14T13:26:10.104Z,7.17
2018-11-14T13:28:38.744Z,7.30
2018-11-14T13:31:07.156Z,6.73
2018-11-14T13:33:35.621Z,6.40
2018-11-14T13:36:03.880Z,6.83
2018-11-14T13:38:32.103Z,6.67
2018-11-14T13:41:00.349Z,6.87
2018-11-14T13:43:28.592Z,6.97
2018-11-14T13:45:56.829Z,7.07
2018-11-14T13:48:25.101Z,7.03
2018-11-14T13:50:53.492Z,6.30
2018-11-14T13:53:21.605Z,7.10
2018-11-14T13:55:49.844Z,6.83
2018-11-14T13:58:18.069Z,6.40
2018-11-14T14:00:46.315Z,6.40
2018-11-14T14:03:14.529Z,5.97
2018-11-14T14:05:42.780Z,7.27
2018-11-14T14:08:11.042Z,6.87
2018-11-14T14:10:39.269Z,6.13
2018-11-14T14:13:07.504Z,6.47
2018-11-14T14:15:35.745Z,6.07
2018-11-14T14:18:03.956Z,6.00
2018-11-14T14:20:32.197Z,6.93
2018-11-14T14:23:00.416Z,6.37
2018-11-14T14:25:28.653Z,6.50
2018-11-14T14:27:56.860Z,6.37
2018-11-14T14:30:25.097Z,6.07
2018-11-14T14:32:53.304Z,6.03
2018-11-14T14:35:22.422Z,6.37
2018-11-14T14:37:50.681Z,6.80
2018-11-14T14:40:20.037Z,6.27
2018-11-14T14:42:48.350Z,6.60
2018-11-14T14:45:19.028Z,6.43
2018-11-14T14:47:47.273Z,6.67
2018-11-14T14:50:16.694Z,5.43
2018-11-14T14:52:45.225Z,6.00
2018-11-14T14:55:15.746Z,5.20
2018-11-14T14:57:44.740Z,6.10
2018-11-14T15:00:19.977Z,6.80
2018-11-14T15:02:48.196Z,5.80
2018-11-14T15:05:16.425Z,5.23
2018-11-14T15:07:44.648Z,6.50
2018-11-14T15:10:14.537Z,5.03
2018-11-14T15:12:42.850Z,6.07
2018-11-14T15:15:11.460Z,5.50
2018-11-14T15:17:39.693Z,4.90
2018-11-14T15:20:13.561Z,6.37
2018-11-14T15:22:42.106Z,6.40
2018-11-14T15:25:11.957Z,6.27
2018-11-14T15:27:40.938Z,6.90
2018-11-14T15:30:12.024Z,6.53
2018-11-14T15:32:40.648Z,6.33
2018-11-14T15:35:09.731Z,9.43
2018-11-14T15:37:38.128Z,8.77
2018-11-14T15:40:07.440Z,9.77
2018-11-14T15:42:36.403Z,8.57
2018-11-14T15:45:05.193Z,7.50
2018-11-14T15:47:33.426Z,7.77
2018-11-14T15:50:01.656Z,8.97
2018-11-14T15:52:29.908Z,7.83
2018-11-14T15:54:58.133Z,8.67
2018-11-14T15:57:26.380Z,7.90
2018-11-14T15:59:54.604Z,9.57
2018-11-14T16:02:22.878Z,11.93
2018-11-14T16:04:51.109Z,12.33
2018-11-14T16:07:19.364Z,10.37
2018-11-14T16:09:47.593Z,10.57
2018-11-14T16:12:15.876Z,10.93
2018-11-14T16:14:44.085Z,11.27
2018-11-14T16:17:12.333Z,11.70
2018-11-14T16:19:40.556Z,9.67
2018-11-14T16:22:08.808Z,8.37
2018-11-14T16:24:37.091Z,8.60
2018-11-14T16:27:05.649Z,8.50
2018-11-14T16:29:33.884Z,7.70
2018-11-14T16:32:02.165Z,7.93
2018-11-14T16:34:30.406Z,8.50
2018-11-14T16:36:58.679Z,8.47
2018-11-14T16:39:26.904Z,8.13
2018-11-14T16:41:55.155Z,9.37
2018-11-14T16:44:23.441Z,10.57
2018-11-14T16:46:51.646Z,9.20
2018-11-14T16:49:19.887Z,10.10
2018-11-14T16:51:48.105Z,10.77
2018-11-14T16:54:16.341Z,9.20
2018-11-14T16:56:44.568Z,9.47
2018-11-14T16:59:12.800Z,10.37
2018-11-14T17:01:41.022Z,9.73
2018-11-14T17:04:09.264Z,10.53
2018-11-14T17:06:37.494Z,9.83
2018-11-14T17:09:08.545Z,10.43
2018-11-14T17:11:36.788Z,10.53
2018-11-14T17:14:05.197Z,11.80
2018-11-14T17:16:33.427Z,10.30
2018-11-14T17:19:02.229Z,11.53
2018-11-14T17:21:30.460Z,10.90
2018-11-14T17:23:58.719Z,12.03
2018-11-14T17:26:26.956Z,12.10
2018-11-14T17:28:55.188Z,11.67
2018-11-14T17:31:23.440Z,11.47
2018-11-14T17:33:51.658Z,11.23
2018-11-14T17:36:19.892Z,11.73
2018-11-14T17:38:48.129Z,11.47
2018-11-14T17:41:16.378Z,10.60
2018-11-14T17:43:44.983Z,10.80
2018-11-14T17:46:13.239Z,10.30
2018-11-14T17:48:41.471Z,11.33
2018-11-14T17:51:09.707Z,14.70
2018-11-14T17:53:37.936Z,13.43
2018-11-14T17:56:06.187Z,11.73
2018-11-14T17:58:34.409Z,11.20
2018-11-14T18:01:02.741Z,11.47
2018-11-14T18:03:30.939Z,11.67
2018-11-14T18:05:59.183Z,10.57
2018-11-14T18:08:27.396Z,10.80
2018-11-14T18:10:55.660Z,11.10
2018-11-14T18:13:23.875Z,10.37
2018-11-14T18:15:52.111Z,11.23
2018-11-14T18:18:20.348Z,10.17
2018-11-14T18:20:48.563Z,10.37
2018-11-14T18:23:16.801Z,10.83
2018-11-14T18:25:45.028Z,12.33
2018-11-14T18:28:13.278Z,14.77
2018-11-14T18:30:41.602Z,14.13
2018-11-14T18:33:09.777Z,14.73
2018-11-14T18:35:38.009Z,14.87
2018-11-14T18:38:06.253Z,14.40
2018-11-14T18:40:35.240Z,17.90
2018-11-14T18:43:03.506Z,15.90
2018-11-14T18:45:33.758Z,17.13
2018-11-14T18:48:02.624Z,15.30
2018-11-14T18:50:30.908Z,15.40
2018-11-14T18:52:59.165Z,16.00
2018-11-14T18:55:28.768Z,14.00
2018-11-14T18:57:57.488Z,13.77
2018-11-14T19:00:26.877Z,14.80
2018-11-14T19:02:55.100Z,13.63
2018-11-14T19:05:23.340Z,13.57
2018-11-14T19:07:51.576Z,11.30
2018-11-14T19:10:21.328Z,12.40
2018-11-14T19:12:50.258Z,13.87
2018-11-14T19:15:19.878Z,12.50
2018-11-14T19:17:48.103Z,12.97
2018-11-14T19:20:18.428Z,13.50
2018-11-14T19:22:46.736Z,12.43
2018-11-14T19:25:16.432Z,12.97
2018-11-14T19:27:45.450Z,14.17
2018-11-14T19:30:14.881Z,14.90
2018-11-14T19:32:44.092Z,15.33
2018-11-14T19:35:12.906Z,16.00
2018-11-14T19:37:42.388Z,22.20
2018-11-14T19:40:13.528Z,18.10
2018-11-14T19:42:42.249Z,17.50
2018-11-14T19:45:12.989Z,14.47
2018-11-14T19:47:41.839Z,14.97
2018-11-14T19:50:11.729Z,12.90
2018-11-14T19:52:40.204Z,16.23
2018-11-14T19:55:09.722Z,14.30
2018-11-14T19:57:37.951Z,13.73
2018-11-14T20:00:10.528Z,14.00
2018-11-14T20:02:38.760Z,15.17
2018-11-14T20:05:07.876Z,14.53
2018-11-14T20:07:36.536Z,14.40
2018-11-14T20:10:05.743Z,13.87
2018-11-14T20:12:33.996Z,14.60
2018-11-14T20:15:02.247Z,15.03
2018-11-14T20:17:30.499Z,14.47
2018-11-14T20:19:58.744Z,13.17
2018-11-14T20:22:26.984Z,13.87
2018-11-14T20:24:55.221Z,12.87
2018-11-14T20:27:23.473Z,13.27
2018-11-14T20:29:51.701Z,11.40
2018-11-14T20:32:19.948Z,12.50
2018-11-14T20:34:48.193Z,12.77
2018-11-14T20:37:16.467Z,12.50
2018-11-14T20:39:44.696Z,13.33
2018-11-14T20:42:12.999Z,13.37
2018-11-14T20:44:41.235Z,12.67
2018-11-14T20:47:09.480Z,11.87
2018-11-14T20:49:37.696Z,13.60
2018-11-14T20:52:05.942Z,12.17
2018-11-14T20:54:34.179Z,12.97
2018-11-14T20:57:02.422Z,12.50
2018-11-14T20:59:30.661Z,12.90
2018-11-14T21:01:58.909Z,13.83
2018-11-14T21:04:27.123Z,16.00
2018-11-14T21:06:55.395Z,14.40
2018-11-14T21:09:23.608Z,14.63
2018-11-14T21:11:51.849Z,14.33
2018-11-14T21:14:20.088Z,13.17
